createdAt,value
2023-03-11T00:00:01.788Z,705.10
2023-03-11T00:00:13.741Z,705.32
2023-03-11T00:00:24.752Z,706.31
2023-03-11T00:00:35.755Z,706.65
2023-03-11T00:00:47.775Z,706.14
2023-03-11T00:00:58.763Z,705.23
2023-03-11T00:01:09.747Z,705.70
2023-03-11T00:01:20.745Z,706.13
2023-03-11T00:01:31.727Z,706.20
2023-03-11T00:01:42.825Z,705.64
2023-03-11T00:01:53.818Z,705.37
2023-03-11T00:02:05.839Z,705.52
2023-03-11T00:02:16.791Z,705.43
2023-03-11T00:02:27.776Z,705.10
2023-03-11T00:02:38.720Z,705.49
2023-03-11T00:02:49.719Z,705.68
2023-03-11T00:03:00.719Z,704.99
2023-03-11T00:03:11.728Z,705.78
2023-03-11T00:03:22.729Z,705.51
2023-03-11T00:03:33.725Z,705.59
2023-03-11T00:03:44.748Z,705.16
2023-03-11T00:03:55.737Z,704.84
2023-03-11T00:04:06.737Z,704.97
2023-03-11T00:04:17.722Z,704.15
2023-03-11T00:04:28.737Z,705.16
2023-03-11T00:04:39.720Z,705.62
2023-03-11T00:04:50.712Z,705.22
2023-03-11T00:05:01.833Z,705.70
2023-03-11T00:05:13.816Z,705.26
2023-03-11T00:05:25.867Z,704.93
2023-03-11T00:05:36.781Z,704.93
2023-03-11T00:05:48.749Z,704.65
2023-03-11T00:05:59.767Z,704.61
2023-03-11T00:06:10.755Z,704.71
2023-03-11T00:06:21.752Z,704.42
2023-03-11T00:06:32.748Z,704.14
2023-03-11T00:06:43.765Z,705.00
2023-03-11T00:06:54.744Z,704.48
2023-03-11T00:07:05.734Z,704.08
2023-03-11T00:07:16.717Z,703.23
2023-03-11T00:07:27.795Z,703.98
2023-03-11T00:07:39.742Z,704.31
2023-03-11T00:07:50.724Z,704.27
2023-03-11T00:08:01.820Z,704.08
2023-03-11T00:08:13.793Z,704.65
2023-03-11T00:08:25.744Z,704.59
2023-03-11T00:08:36.772Z,703.90
2023-03-11T00:08:47.786Z,703.66
2023-03-11T00:08:59.774Z,704.18
2023-03-11T00:09:10.799Z,704.60
2023-03-11T00:09:21.770Z,703.85
2023-03-11T00:09:32.760Z,703.19
2023-03-11T00:09:43.766Z,703.48
2023-03-11T00:09:54.745Z,703.76
2023-03-11T00:10:05.729Z,703.61
2023-03-11T00:10:16.723Z,703.12
2023-03-11T00:10:30.019Z,703.46
2023-03-11T00:10:38.764Z,703.60
2023-03-11T00:10:49.754Z,703.77
2023-03-11T00:11:01.738Z,703.65
2023-03-11T00:11:12.754Z,703.69
2023-03-11T00:11:23.737Z,703.40
2023-03-11T00:11:34.734Z,703.02
2023-03-11T00:11:45.729Z,702.81
2023-03-11T00:11:56.811Z,703.11
2023-03-11T00:12:08.775Z,703.15
2023-03-11T00:12:20.745Z,702.79
2023-03-11T00:12:31.752Z,702.52
2023-03-11T00:12:42.746Z,702.45
2023-03-11T00:12:53.752Z,702.82
2023-03-11T00:13:04.740Z,703.53
2023-03-11T00:13:15.737Z,703.25
2023-03-11T00:13:26.733Z,701.78
2023-03-11T00:13:37.717Z,702.35
2023-03-11T00:13:48.723Z,702.70
2023-03-11T00:13:59.720Z,702.72
2023-03-11T00:14:10.716Z,702.78
2023-03-11T00:14:21.762Z,702.35
2023-03-11T00:19:29.770Z,700.88
2023-03-11T00:19:41.627Z,700.67
2023-03-11T00:19:52.686Z,700.66
2023-03-11T00:20:04.634Z,700.50
2023-03-11T00:20:15.616Z,700.71
2023-03-11T00:20:26.610Z,701.02
2023-03-11T00:20:37.617Z,700.73
2023-03-11T00:20:48.644Z,700.75
2023-03-11T00:20:59.641Z,700.23
2023-03-11T00:21:11.615Z,699.81
2023-03-11T00:21:22.625Z,700.57
2023-03-11T00:21:33.625Z,700.36
2023-03-11T00:21:45.617Z,699.98
2023-03-11T00:21:56.615Z,700.08
2023-03-11T00:22:07.621Z,699.52
2023-03-11T00:22:18.612Z,699.74
2023-03-11T00:22:29.609Z,700.33
2023-03-11T00:22:40.614Z,700.61
2023-03-11T00:22:51.611Z,700.44
2023-03-11T00:23:02.645Z,700.24
2023-03-11T00:23:13.653Z,699.96
2023-03-11T00:23:24.663Z,699.79
2023-03-11T00:23:36.628Z,699.67
2023-03-11T00:23:47.618Z,699.57
2023-03-11T00:23:58.595Z,699.61
2023-03-11T00:24:09.687Z,699.22
2023-03-11T00:24:21.641Z,699.75
2023-03-11T00:24:33.640Z,699.84
2023-03-11T00:24:44.631Z,699.78
2023-03-11T00:24:55.631Z,699.84
2023-03-11T00:25:07.614Z,699.61
2023-03-11T00:25:18.610Z,699.52
2023-03-11T00:25:29.613Z,698.52
2023-03-11T00:25:40.606Z,699.91
2023-03-11T00:25:51.595Z,700.30
2023-03-11T00:26:02.653Z,698.78
2023-03-11T00:26:13.644Z,699.06
2023-03-11T00:26:24.648Z,699.03
2023-03-11T00:26:35.650Z,698.33
2023-03-11T00:26:46.636Z,699.06
2023-03-11T00:26:57.633Z,698.03
2023-03-11T00:27:08.618Z,698.60
2023-03-11T00:27:20.618Z,698.87
2023-03-11T00:27:31.591Z,698.74
2023-03-11T00:27:42.674Z,698.78
2023-03-11T00:27:54.618Z,698.59
2023-03-11T00:28:05.613Z,698.23
2023-03-11T00:28:16.627Z,698.95
2023-03-11T00:28:27.628Z,698.66
2023-03-11T00:28:38.628Z,698.38
2023-03-11T00:28:50.642Z,698.65
2023-03-11T00:29:01.629Z,698.59
2023-03-11T00:29:12.627Z,698.68
2023-03-11T00:29:24.620Z,698.88
2023-03-11T00:29:35.624Z,697.98
2023-03-11T00:29:46.645Z,698.37
2023-03-11T00:29:58.651Z,698.96
2023-03-11T00:30:09.637Z,698.59
2023-03-11T00:30:20.643Z,698.65
2023-03-11T00:30:31.757Z,698.32
2023-03-11T00:30:43.717Z,697.87
2023-03-11T00:30:55.675Z,698.18
2023-03-11T00:31:06.638Z,698.14
2023-03-11T00:31:18.662Z,698.00
2023-03-11T00:31:30.647Z,697.90
2023-03-11T00:31:42.620Z,698.08
2023-03-11T00:31:53.606Z,698.34
2023-03-11T00:32:04.639Z,698.22
2023-03-11T00:32:15.733Z,698.11
2023-03-11T00:32:26.652Z,697.01
2023-03-11T00:32:38.732Z,697.69
2023-03-11T00:32:50.721Z,698.44
2023-03-11T00:33:02.621Z,698.70
2023-03-11T00:33:14.626Z,698.48
2023-03-11T00:33:25.621Z,697.91
2023-03-11T00:33:36.616Z,697.73
2023-03-11T00:33:47.614Z,698.29
2023-03-11T00:33:58.611Z,697.76
2023-03-11T00:34:09.629Z,697.16
2023-03-11T00:34:20.612Z,697.92
2023-03-11T00:34:31.597Z,697.50
2023-03-11T00:34:42.668Z,697.80
2023-03-11T00:34:54.657Z,697.95
2023-03-11T00:35:05.644Z,697.96
2023-03-11T00:35:17.632Z,697.51
2023-03-11T00:35:28.619Z,697.44
2023-03-11T00:35:39.637Z,697.67
2023-03-11T00:35:51.674Z,697.59
2023-03-11T00:36:02.630Z,696.99
2023-03-11T00:36:13.681Z,697.06
2023-03-11T00:36:25.643Z,697.45
2023-03-11T00:36:36.621Z,697.68
2023-03-11T00:36:48.632Z,697.20
2023-03-11T00:37:00.622Z,697.37
2023-03-11T00:37:11.602Z,697.16
2023-03-11T00:37:22.606Z,697.30
2023-03-11T00:37:33.599Z,697.48
2023-03-11T00:37:44.670Z,697.26
2023-03-11T00:37:56.618Z,697.08
2023-03-11T00:38:07.641Z,697.65
2023-03-11T00:38:18.678Z,697.04
2023-03-11T00:38:30.666Z,696.67
2023-03-11T00:38:42.694Z,698.24
2023-03-11T00:38:53.651Z,697.00
2023-03-11T00:39:04.681Z,696.43
2023-03-11T00:39:16.644Z,696.47
2023-03-11T00:39:27.644Z,696.71
2023-03-11T00:39:38.654Z,696.87
2023-03-11T00:39:50.606Z,696.60
2023-03-11T00:40:01.623Z,696.91
2023-03-11T00:40:12.614Z,696.87
2023-03-11T00:40:23.617Z,696.47
2023-03-11T00:40:34.638Z,696.27
2023-03-11T00:40:45.638Z,697.28
2023-03-11T00:40:56.624Z,696.75
2023-03-11T00:41:07.607Z,696.95
2023-03-11T00:41:18.613Z,696.63
2023-03-11T00:41:30.622Z,696.77
2023-03-11T00:41:41.603Z,696.66
2023-03-11T00:41:52.599Z,696.24
2023-03-11T00:42:03.588Z,696.52
2023-03-11T00:42:14.584Z,696.51
2023-03-11T00:42:25.669Z,696.51
2023-03-11T00:42:37.631Z,696.29
2023-03-11T00:42:48.636Z,696.11
2023-03-11T00:42:59.639Z,695.72
2023-03-11T00:43:10.639Z,695.53
2023-03-11T00:43:21.622Z,695.34
2023-03-11T00:43:32.628Z,695.52
2023-03-11T00:43:43.619Z,695.82
2023-03-11T00:43:54.620Z,696.28
2023-03-11T00:44:05.610Z,695.93
2023-03-11T00:47:31.828Z,694.46
2023-03-11T00:47:43.684Z,694.78
2023-03-11T00:47:55.644Z,695.07
2023-03-11T00:48:06.659Z,695.34
2023-03-11T00:48:17.638Z,694.96
2023-03-11T00:48:28.650Z,694.50
2023-03-11T00:48:39.637Z,694.05
2023-03-11T00:48:51.629Z,693.69
2023-03-11T00:49:02.644Z,694.26
2023-03-11T00:49:13.644Z,694.36
2023-03-11T00:49:24.637Z,694.03
2023-03-11T00:49:36.631Z,695.19
2023-03-11T00:49:47.634Z,694.60
2023-03-11T00:49:58.611Z,694.58
2023-03-11T00:50:09.651Z,693.70
2023-03-11T00:50:20.637Z,693.55
2023-03-11T00:50:31.627Z,694.03
2023-03-11T00:50:43.639Z,693.77
2023-03-11T00:50:54.788Z,693.80
2023-03-11T00:51:06.736Z,694.12
2023-03-11T00:51:17.730Z,694.40
2023-03-11T00:51:28.747Z,694.49
2023-03-11T00:51:39.751Z,693.94
2023-03-11T00:51:51.741Z,693.92
2023-03-11T00:52:02.725Z,693.78
2023-03-11T00:52:13.722Z,693.86
2023-03-11T00:52:24.713Z,693.49
2023-03-11T00:52:35.798Z,693.15
2023-03-11T00:52:47.765Z,693.24
2023-03-11T00:52:59.797Z,693.89
2023-03-11T00:53:11.770Z,693.80
2023-03-11T00:53:23.738Z,693.58
2023-03-11T00:53:34.722Z,693.03
2023-03-11T00:53:45.793Z,693.49
2023-03-11T00:53:57.740Z,693.34
2023-03-11T00:54:08.720Z,693.36
2023-03-11T00:54:19.717Z,693.07
2023-03-11T00:54:30.804Z,693.21
2023-03-11T00:54:42.755Z,693.85
2023-03-11T00:54:53.737Z,693.70
2023-03-11T00:55:04.744Z,693.14
2023-03-11T00:55:15.737Z,692.98
2023-03-11T00:55:26.733Z,692.89
2023-03-11T00:55:37.760Z,692.74
2023-03-11T00:55:48.745Z,692.72
2023-03-11T00:55:59.732Z,692.79
2023-03-11T00:56:10.717Z,693.02
2023-03-11T00:56:21.806Z,693.73
2023-03-11T00:56:33.769Z,692.86
2023-03-11T00:56:44.751Z,692.57
2023-03-11T00:56:55.750Z,692.66
2023-03-11T00:57:06.754Z,692.35
2023-03-11T00:57:18.749Z,692.23
2023-03-11T00:57:29.754Z,692.81
2023-03-11T00:57:40.763Z,692.93
2023-03-11T00:57:51.749Z,692.42
2023-03-11T00:58:02.734Z,692.10
2023-03-11T00:58:13.743Z,692.25
2023-03-11T00:58:24.743Z,692.21
2023-03-11T00:58:35.736Z,692.27
2023-03-11T00:58:46.732Z,692.23
2023-03-11T00:58:57.739Z,692.11
2023-03-11T00:59:08.741Z,691.79
2023-03-11T00:59:19.720Z,691.82
2023-03-11T00:59:30.706Z,692.10
2023-03-11T00:59:41.749Z,692.10
2023-03-11T00:59:52.733Z,691.89
2023-03-11T01:00:03.734Z,691.78
2023-03-11T01:00:14.735Z,691.44
2023-03-11T01:00:25.731Z,692.04
2023-03-11T01:00:36.730Z,692.09
2023-03-11T01:00:47.732Z,691.92
2023-03-11T01:00:58.749Z,691.79
2023-03-11T01:01:09.775Z,691.82
2023-03-11T01:01:21.784Z,691.70
2023-03-11T01:01:33.761Z,691.50
2023-03-11T01:01:44.726Z,691.50
2023-03-11T01:01:55.732Z,692.28
2023-03-11T01:02:06.748Z,691.62
2023-03-11T01:02:17.735Z,691.13
2023-03-11T01:02:28.746Z,691.00
2023-03-11T01:02:39.739Z,691.11
2023-03-11T01:02:50.725Z,691.60
2023-03-11T01:03:01.739Z,691.66
2023-03-11T01:03:12.746Z,691.42
2023-03-11T01:03:23.730Z,691.11
2023-03-11T01:03:34.716Z,691.24
2023-03-11T01:03:45.807Z,691.18
2023-03-11T01:03:57.763Z,690.49
2023-03-11T01:04:08.801Z,690.65
2023-03-11T01:04:19.768Z,690.70
2023-03-11T01:04:31.753Z,691.15
2023-03-11T01:04:42.843Z,691.66
2023-03-11T01:04:53.768Z,691.02
2023-03-11T01:05:04.729Z,691.15
2023-03-11T01:05:15.765Z,690.87
2023-03-11T01:05:26.762Z,690.86
2023-03-11T01:05:37.767Z,690.83
2023-03-11T01:05:49.742Z,690.84
2023-03-11T01:06:00.733Z,691.01
2023-03-11T01:06:11.743Z,690.89
2023-03-11T01:06:23.466Z,690.74
2023-03-11T01:06:44.732Z,690.68
2023-03-11T01:06:46.738Z,690.51
2023-03-11T01:06:56.755Z,690.37
2023-03-11T01:07:09.005Z,690.25
2023-03-11T01:07:19.766Z,690.31
2023-03-11T01:07:30.752Z,690.05
2023-03-11T01:07:41.748Z,690.15
2023-03-11T01:07:52.753Z,690.28
2023-03-11T01:08:03.741Z,690.06
2023-03-11T01:08:14.751Z,689.87
2023-03-11T01:08:25.764Z,690.30
2023-03-11T01:08:36.751Z,689.61
2023-03-11T01:08:47.743Z,690.52
2023-03-11T01:08:58.762Z,690.36
2023-03-11T01:09:09.744Z,690.12
2023-03-11T01:09:20.745Z,690.45
2023-03-11T01:09:31.726Z,689.87
2023-03-11T01:09:42.801Z,689.57
2023-03-11T01:09:54.764Z,689.28
2023-03-11T01:10:06.759Z,689.49
2023-03-11T01:10:17.737Z,689.64
2023-03-11T01:10:28.738Z,689.64
2023-03-11T01:10:40.741Z,689.59
2023-03-11T01:10:51.736Z,689.49
2023-03-11T01:11:02.738Z,689.51
2023-03-11T01:11:13.731Z,689.44
2023-03-11T01:11:24.716Z,689.34
2023-03-11T01:11:35.809Z,689.09
2023-03-11T01:11:47.763Z,689.12
2023-03-11T01:11:58.742Z,689.34
2023-03-11T01:12:09.736Z,689.02
2023-03-11T01:12:20.737Z,688.87
2023-03-11T01:12:31.734Z,688.86
2023-03-11T01:12:42.735Z,688.83
2023-03-11T01:12:53.762Z,688.66
2023-03-11T01:13:04.762Z,688.88
2023-03-11T01:13:15.747Z,688.71
2023-03-11T01:13:26.724Z,689.16
2023-03-11T01:13:37.734Z,689.72
2023-03-11T01:13:48.727Z,688.83
2023-03-11T01:13:59.716Z,689.24
2023-03-11T01:14:10.805Z,689.21
2023-03-11T01:14:22.757Z,688.98
2023-03-11T01:14:34.745Z,689.04
2023-03-11T01:14:46.750Z,689.16
2023-03-11T01:14:57.733Z,689.12
2023-03-11T01:15:08.730Z,688.93
2023-03-11T01:15:19.728Z,688.32
2023-03-11T01:15:30.933Z,688.37
2023-03-11T01:15:41.787Z,688.28
2023-03-11T01:15:53.777Z,688.10
2023-03-11T01:16:05.770Z,687.96
2023-03-11T01:16:17.802Z,687.96
2023-03-11T01:16:28.754Z,688.05
2023-03-11T01:16:39.759Z,688.22
2023-03-11T01:16:50.740Z,688.19
2023-03-11T01:17:01.760Z,687.92
2023-03-11T01:17:12.750Z,688.06
2023-03-11T01:17:23.749Z,688.02
2023-03-11T01:17:34.825Z,688.09
2023-03-11T01:17:45.754Z,688.11
2023-03-11T01:17:56.755Z,687.74
2023-03-11T01:18:07.775Z,687.23
2023-03-11T01:18:18.762Z,687.41
2023-03-11T01:18:29.740Z,688.15
2023-03-11T01:18:40.767Z,688.31
2023-03-11T01:18:51.757Z,687.85
2023-03-11T01:19:02.756Z,687.80
2023-03-11T01:19:14.129Z,687.87
2023-03-11T01:19:24.722Z,687.82
2023-03-11T01:19:35.736Z,687.79
2023-03-11T01:19:46.743Z,687.70
2023-03-11T01:19:57.728Z,687.60
2023-03-11T01:20:08.768Z,687.78
2023-03-11T01:20:19.761Z,687.66
2023-03-11T01:20:30.773Z,687.50
2023-03-11T01:20:41.772Z,687.64
2023-03-11T01:20:52.769Z,687.59
2023-03-11T01:21:03.744Z,687.75
2023-03-11T01:21:14.736Z,687.86
2023-03-11T01:21:25.720Z,687.43
2023-03-11T01:21:36.727Z,687.71
2023-03-11T01:21:47.720Z,687.40
2023-03-11T01:21:58.713Z,687.32
2023-03-11T01:22:09.737Z,687.55
2023-03-11T01:22:20.739Z,687.15
2023-03-11T01:22:31.738Z,687.49
2023-03-11T01:22:42.742Z,687.51
2023-03-11T01:22:54.737Z,687.56
2023-03-11T01:23:05.733Z,686.98
2023-03-11T01:23:16.753Z,687.55
2023-03-11T01:23:27.749Z,687.58
2023-03-11T01:23:38.746Z,687.40
2023-03-11T01:23:50.737Z,687.51
2023-03-11T01:24:01.764Z,687.47
2023-03-11T01:24:12.750Z,687.25
2023-03-11T01:24:23.738Z,687.15
2023-03-11T01:24:34.730Z,686.64
2023-03-11T01:24:45.712Z,686.33
2023-03-11T01:24:56.724Z,687.03
2023-03-11T01:25:07.721Z,687.07
2023-03-11T01:25:18.709Z,686.97
2023-03-11T01:25:29.808Z,687.10
2023-03-11T01:25:41.757Z,686.64
2023-03-11T01:25:52.753Z,686.94
2023-03-11T01:26:03.737Z,686.85
2023-03-11T01:26:14.741Z,686.48
2023-03-11T01:26:25.727Z,686.53
2023-03-11T01:26:36.762Z,686.74
2023-03-11T01:26:47.755Z,686.97
2023-03-11T01:26:58.750Z,686.81
2023-03-11T01:27:09.738Z,686.74
2023-03-11T01:27:20.766Z,686.72
2023-03-11T01:27:31.755Z,686.39
2023-03-11T01:27:42.743Z,686.17
2023-03-11T01:27:53.709Z,685.98
2023-03-11T01:28:04.719Z,686.06
2023-03-11T01:28:15.716Z,686.42
2023-03-11T01:28:26.725Z,686.68
2023-03-11T01:28:37.714Z,686.23
2023-03-11T01:28:48.803Z,685.76
2023-03-11T01:29:00.761Z,686.32
2023-03-11T01:29:12.756Z,686.14
2023-03-11T01:29:23.747Z,686.40
2023-03-11T01:29:34.742Z,686.35
2023-03-11T01:29:45.727Z,686.39
2023-03-11T01:29:56.708Z,686.31
2023-03-11T01:30:07.787Z,686.28
2023-03-11T01:30:19.796Z,685.99
2023-03-11T01:30:31.770Z,685.54
2023-03-11T01:30:42.842Z,685.65
2023-03-11T01:30:53.788Z,686.31
2023-03-11T01:31:05.817Z,686.22
2023-03-11T01:31:16.801Z,686.30
2023-03-11T01:31:27.740Z,686.31
2023-03-11T01:31:38.765Z,686.26
2023-03-11T01:31:49.760Z,685.94
2023-03-11T01:32:01.764Z,685.80
2023-03-11T01:32:12.804Z,685.75
2023-03-11T01:32:24.773Z,685.90
2023-03-11T01:32:36.813Z,685.29
2023-03-11T01:32:48.847Z,685.78
2023-03-11T01:33:00.753Z,684.93
2023-03-11T01:33:11.744Z,685.13
2023-03-11T01:33:22.752Z,685.68
2023-03-11T01:33:33.754Z,685.58
2023-03-11T01:33:44.743Z,685.85
2023-03-11T01:33:55.731Z,685.79
2023-03-11T01:34:06.728Z,685.33
2023-03-11T01:34:17.742Z,684.98
2023-03-11T01:34:28.726Z,684.86
2023-03-11T01:34:39.737Z,684.63
2023-03-11T01:34:50.732Z,684.88
2023-03-11T01:35:01.726Z,684.95
2023-03-11T01:35:12.801Z,685.43
2023-03-11T01:35:24.758Z,685.22
2023-03-11T01:35:35.795Z,685.16
2023-03-11T01:35:46.742Z,684.90
2023-03-11T01:35:57.807Z,684.73
2023-03-11T01:36:08.856Z,685.31
2023-03-11T01:36:20.737Z,684.99
2023-03-11T01:36:31.722Z,684.78
2023-03-11T01:36:42.767Z,684.58
2023-03-11T01:36:53.763Z,684.61
2023-03-11T01:37:04.765Z,684.68
2023-03-11T01:50:13.628Z,682.13
2023-03-11T01:50:24.628Z,682.20
2023-03-11T01:50:35.620Z,682.10
2023-03-11T01:50:46.614Z,682.50
2023-03-11T01:50:57.664Z,682.27
2023-03-11T01:51:09.615Z,681.96
2023-03-11T01:51:20.630Z,681.64
2023-03-11T01:51:32.610Z,681.87
2023-03-11T01:51:43.598Z,681.89
2023-03-11T01:51:54.611Z,681.85
2023-03-11T01:52:05.649Z,681.89
2023-03-11T01:52:17.627Z,681.70
2023-03-11T01:52:28.619Z,681.39
2023-03-11T01:52:39.619Z,681.30
2023-03-11T01:52:50.609Z,681.18
2023-03-11T01:53:01.616Z,681.43
2023-03-11T01:53:12.598Z,681.34
2023-03-11T01:53:23.630Z,681.52
2023-03-11T01:53:34.621Z,681.38
2023-03-11T01:53:45.614Z,681.34
2023-03-11T01:53:56.600Z,681.45
2023-03-11T01:54:07.607Z,681.12
2023-03-11T01:54:18.607Z,681.21
2023-03-11T01:54:29.587Z,681.30
2023-03-11T01:54:40.577Z,681.01
2023-03-11T01:54:52.072Z,680.88
2023-03-11T01:55:03.579Z,680.48
2023-03-11T01:55:14.576Z,680.31
2023-03-11T01:55:25.575Z,680.80
2023-03-11T01:55:36.669Z,680.60
2023-03-11T01:55:48.610Z,681.06
2023-03-11T01:55:59.594Z,681.30
2023-03-11T01:56:10.686Z,681.95
2023-03-11T01:56:22.640Z,681.33
2023-03-11T01:56:33.631Z,681.36
2023-03-11T01:56:44.624Z,681.14
2023-03-11T01:56:55.641Z,681.10
2023-03-11T01:57:07.606Z,680.94
2023-03-11T01:57:18.600Z,680.62
2023-03-11T01:57:29.591Z,680.40
2023-03-11T01:57:40.665Z,679.90
2023-03-11T01:57:52.624Z,679.52
2023-03-11T01:58:03.618Z,679.92
2023-03-11T01:58:14.610Z,680.70
2023-03-11T01:58:25.592Z,680.99
2023-03-11T01:58:36.673Z,680.43
2023-03-11T01:58:48.632Z,680.25
2023-03-11T01:58:59.624Z,680.28
2023-03-11T01:59:10.628Z,680.30
2023-03-11T01:59:21.637Z,680.03
2023-03-11T01:59:32.633Z,679.99
2023-03-11T01:59:44.633Z,679.72
2023-03-11T01:59:55.628Z,679.70
2023-03-11T02:00:07.622Z,678.94
2023-03-11T02:00:18.605Z,679.59
2023-03-11T02:00:29.581Z,679.82
2023-03-11T02:03:00.738Z,679.47
2023-03-11T02:03:11.648Z,679.53
2023-03-11T02:03:23.600Z,679.41
2023-03-11T03:37:49.819Z,666.63
2023-03-11T03:38:00.613Z,666.71
2023-03-11T03:38:11.617Z,666.56
2023-03-11T03:38:22.607Z,666.40
2023-03-11T03:38:33.610Z,666.35
2023-03-11T03:38:44.633Z,666.25
2023-03-11T03:38:55.634Z,666.90
2023-03-11T03:39:06.617Z,666.72
2023-03-11T03:39:17.613Z,666.50
2023-03-11T03:39:30.570Z,666.61
2023-03-11T03:39:40.714Z,666.38
2023-03-11T03:39:51.793Z,665.93
2023-03-11T03:40:03.736Z,665.93
2023-03-11T03:40:14.728Z,666.44
2023-03-11T03:40:25.707Z,666.53
2023-03-11T03:40:36.793Z,666.18
2023-03-11T03:40:47.771Z,666.40
2023-03-11T03:40:59.750Z,666.26
2023-03-11T03:41:10.736Z,666.12
2023-03-11T03:41:21.726Z,666.18
2023-03-11T03:41:32.723Z,666.20
2023-03-11T03:41:43.760Z,666.19
2023-03-11T03:41:54.751Z,666.30
2023-03-11T03:42:05.728Z,666.22
2023-03-11T03:42:16.731Z,666.15
2023-03-11T03:42:27.736Z,665.94
2023-03-11T03:42:38.726Z,665.80
2023-03-11T03:42:49.766Z,665.67
2023-03-11T03:43:00.768Z,665.86
2023-03-11T03:43:11.756Z,665.95
2023-03-11T03:43:22.758Z,665.97
2023-03-11T03:43:33.756Z,665.83
2023-03-11T03:43:44.753Z,665.78
2023-03-11T03:43:55.742Z,665.75
2023-03-11T03:44:06.712Z,665.75
2023-03-11T03:44:17.707Z,665.63
2023-03-11T03:44:28.722Z,665.58
2023-03-11T03:44:39.807Z,665.58
2023-03-11T03:44:51.750Z,665.68
2023-03-11T03:45:02.733Z,665.61
2023-03-11T03:45:13.750Z,665.32
2023-03-11T03:45:24.748Z,665.17
2023-03-11T03:45:36.758Z,665.18
2023-03-11T03:45:47.853Z,665.17
2023-03-11T03:45:58.849Z,665.09
2023-03-11T03:46:09.817Z,664.95
2023-03-11T03:46:21.856Z,665.23
2023-03-11T03:46:33.761Z,665.38
2023-03-11T03:46:44.755Z,665.49
2023-03-11T03:46:56.743Z,665.34
2023-03-11T03:47:07.738Z,665.36
2023-03-11T03:47:18.717Z,665.93
2023-03-11T03:47:29.804Z,665.89
2023-03-11T03:47:41.759Z,665.50
2023-03-11T03:47:52.777Z,665.03
2023-03-11T03:48:03.755Z,664.34
2023-03-11T03:48:14.744Z,664.75
2023-03-11T03:48:25.745Z,664.93
2023-03-11T03:48:36.736Z,664.66
2023-03-11T03:48:47.717Z,664.97
2023-03-11T03:48:58.717Z,665.07
2023-03-11T03:49:09.731Z,665.35
2023-03-11T03:49:20.771Z,665.07
2023-03-11T03:49:31.761Z,665.01
2023-03-11T03:49:42.744Z,664.94
2023-03-11T03:49:53.737Z,664.85
2023-03-11T03:50:04.747Z,664.79
2023-03-11T03:50:15.733Z,664.61
2023-03-11T03:50:26.744Z,664.41
2023-03-11T03:50:37.742Z,664.21
2023-03-11T03:50:48.732Z,664.14
2023-03-11T03:50:59.730Z,664.15
2023-03-11T03:51:10.731Z,664.28
2023-03-11T03:51:21.734Z,663.88
2023-03-11T03:51:32.719Z,663.55
2023-03-11T03:51:43.732Z,663.25
2023-03-11T03:51:54.730Z,663.75
2023-03-11T03:52:05.724Z,663.74
2023-03-11T03:52:16.726Z,663.31
2023-03-11T03:52:27.861Z,663.65
2023-03-11T03:52:39.725Z,663.24
2023-03-11T03:52:50.711Z,663.94
2023-03-11T03:53:01.715Z,663.60
2023-03-11T03:53:12.714Z,663.92
2023-03-11T03:53:23.822Z,664.19
2023-03-11T03:53:35.817Z,664.06
2023-03-11T03:53:47.800Z,664.04
2023-03-11T03:53:59.789Z,663.33
2023-03-11T03:54:11.756Z,663.35
2023-03-11T03:54:22.773Z,663.26
2023-03-11T03:54:33.772Z,663.90
2023-03-11T03:54:45.734Z,663.68
2023-03-11T03:54:56.724Z,663.69
2023-03-11T03:55:07.734Z,664.02
2023-03-11T03:55:18.726Z,663.62
2023-03-11T03:55:29.810Z,663.34
2023-03-11T03:55:41.753Z,664.20
2023-03-11T03:55:52.744Z,663.88
2023-03-11T03:56:03.733Z,663.52
2023-03-11T03:56:14.749Z,663.93
2023-03-11T03:56:25.731Z,663.81
2023-03-11T03:56:36.811Z,663.59
2023-03-11T03:56:48.800Z,663.41
2023-03-11T03:57:00.769Z,663.52
2023-03-11T03:57:12.753Z,663.40
2023-03-11T03:57:23.755Z,663.43
2023-03-11T03:57:34.758Z,663.40
2023-03-11T03:57:45.750Z,663.59
2023-03-11T03:57:56.744Z,663.54
2023-03-11T03:58:07.754Z,663.61
2023-03-11T03:58:18.754Z,663.63
2023-03-11T03:58:29.730Z,663.70
2023-03-11T03:58:40.733Z,663.41
2023-03-11T03:58:51.726Z,663.16
2023-03-11T03:59:02.804Z,663.16
2023-03-11T03:59:14.761Z,663.13
2023-03-11T03:59:25.769Z,663.04
2023-03-11T03:59:36.763Z,663.51
2023-03-11T03:59:48.751Z,663.37
2023-03-11T03:59:59.733Z,663.18
2023-03-11T04:00:10.720Z,663.53
2023-03-11T04:00:21.721Z,663.45
2023-03-11T04:00:32.811Z,663.03
2023-03-11T04:00:44.762Z,662.76
2023-03-11T04:00:55.744Z,662.54
2023-03-11T04:01:06.718Z,662.67
2023-03-11T04:01:17.725Z,662.61
2023-03-11T04:01:28.738Z,662.69
2023-03-11T04:01:39.732Z,662.86
2023-03-11T04:01:50.784Z,663.10
2023-03-11T04:02:02.877Z,662.97
2023-03-11T04:02:13.765Z,662.58
2023-03-11T04:02:24.885Z,662.58
2023-03-11T04:02:35.871Z,662.89
2023-03-11T04:02:46.744Z,662.56
2023-03-11T04:02:57.815Z,662.41
2023-03-11T04:03:08.828Z,662.96
2023-03-11T04:03:19.739Z,662.40
2023-03-11T04:03:30.891Z,662.23
2023-03-11T04:03:42.793Z,662.17
2023-03-11T04:03:54.752Z,663.19
2023-03-11T04:04:05.733Z,662.81
2023-03-11T04:04:16.752Z,662.71
2023-03-11T04:04:27.786Z,662.50
2023-03-11T04:04:39.783Z,662.51
2023-03-11T04:04:50.771Z,662.52
2023-03-11T04:05:01.784Z,662.34
2023-03-11T04:05:13.744Z,662.07
2023-03-11T04:05:24.730Z,662.32
2023-03-11T04:05:35.813Z,662.16
2023-03-11T04:05:47.795Z,662.35
2023-03-11T04:05:59.754Z,662.01
2023-03-11T04:06:10.737Z,662.40
2023-03-11T04:06:21.722Z,662.44
2023-03-11T04:06:32.702Z,662.07
2023-03-11T04:06:43.796Z,662.00
2023-03-11T04:06:55.762Z,662.03
2023-03-11T04:07:06.753Z,662.19
2023-03-11T04:07:18.767Z,661.84
2023-03-11T04:07:29.754Z,661.67
2023-03-11T04:07:40.742Z,661.53
2023-03-11T04:07:51.809Z,661.40
2023-03-11T04:08:03.770Z,661.45
2023-03-11T04:08:14.753Z,661.41
2023-03-11T04:08:25.749Z,661.35
2023-03-11T04:08:36.746Z,661.42
2023-03-11T04:08:47.738Z,662.20
2023-03-11T04:08:58.725Z,662.36
2023-03-11T04:09:09.755Z,661.74
2023-03-11T04:09:20.733Z,661.72
2023-03-11T04:09:31.743Z,661.92
2023-03-11T04:09:42.765Z,662.10
2023-03-11T04:09:53.746Z,662.14
2023-03-11T04:10:04.749Z,661.95
2023-03-11T04:10:15.737Z,661.84
2023-03-11T04:10:26.732Z,661.60
2023-03-11T04:10:37.718Z,661.42
2023-03-11T04:10:48.801Z,661.78
2023-03-11T04:11:00.741Z,662.01
2023-03-11T04:11:11.764Z,661.89
2023-03-11T04:11:22.754Z,661.82
2023-03-11T04:11:33.736Z,661.63
2023-03-11T04:11:44.830Z,661.63
2023-03-11T04:11:56.782Z,661.67
2023-03-11T04:12:08.759Z,661.52
2023-03-11T04:12:19.762Z,661.52
2023-03-11T04:12:30.760Z,661.83
2023-03-11T04:12:41.759Z,662.01
2023-03-11T04:12:52.744Z,661.55
2023-03-11T04:13:03.733Z,661.48
2023-03-11T04:13:14.715Z,661.56
2023-03-11T04:13:25.796Z,662.00
2023-03-11T04:13:37.750Z,661.89
2023-03-11T04:13:48.757Z,661.76
2023-03-11T04:13:59.740Z,661.80
2023-03-11T04:14:10.732Z,661.87
2023-03-11T04:14:21.721Z,661.70
2023-03-11T04:14:32.812Z,661.56
2023-03-11T04:14:44.789Z,661.40
2023-03-11T04:14:56.758Z,661.06
2023-03-11T04:15:07.779Z,660.67
2023-03-11T04:15:18.770Z,661.11
2023-03-11T04:15:29.785Z,661.77
2023-03-11T04:15:41.738Z,661.26
2023-03-11T04:15:52.819Z,661.42
2023-03-11T04:16:04.760Z,661.42
2023-03-11T04:16:15.809Z,661.34
2023-03-11T04:16:26.741Z,661.10
2023-03-11T04:16:37.790Z,661.01
2023-03-11T04:16:49.820Z,661.33
2023-03-11T04:17:00.796Z,661.22
2023-03-11T04:17:12.770Z,661.47
2023-03-11T04:17:23.785Z,661.50